createdAt,value
2019-04-22T02:43:43.973Z,5.30
2019-04-22T02:54:17.218Z,5.10
2019-04-22T03:04:00.594Z,5.00
2019-04-22T03:14:11.797Z,4.90
2019-04-22T03:19:14.415Z,4.90
2019-04-22T03:21:36.736Z,4.80
2019-04-22T03:29:15.076Z,4.80
2019-04-22T03:39:45.918Z,4.80
2019-04-22T03:42:07.129Z,4.70
2019-04-22T03:44:44.452Z,4.70
2019-04-22T03:47:21.330Z,4.70
2019-04-22T03:50:04.653Z,4.60
2019-04-22T03:54:54.469Z,4.60
2019-04-22T03:57:49.061Z,4.60
2019-04-22T03:59:57.258Z,4.60
2019-04-22T04:10:10.267Z,4.70
2019-04-22T04:13:03.332Z,4.70
2019-04-22T04:15:20.964Z,4.70
2019-04-22T04:20:24.307Z,4.70
2019-04-22T04:30:30.217Z,4.70
2019-04-22T04:32:58.950Z,4.80
2019-04-22T04:40:31.171Z,4.70
2019-04-22T04:43:07.845Z,4.80
2019-04-22T04:45:51.224Z,4.80
2019-04-22T04:48:14.444Z,4.80
2019-04-22T04:50:53.323Z,4.90
2019-04-22T04:53:24.941Z,5.00
2019-04-22T04:55:46.286Z,5.00
2019-04-22T05:03:43.527Z,5.30
2019-04-22T05:06:01.387Z,5.40
2019-04-22T05:08:54.603Z,5.50
2019-04-22T05:13:50.127Z,5.80
2019-04-22T05:18:44.782Z,6.00
2019-04-22T05:21:14.802Z,6.10
2019-04-22T05:23:43.868Z,6.20
2019-04-22T05:26:26.176Z,6.40
2019-04-22T05:29:05.583Z,6.50
2019-04-22T05:31:30.889Z,6.60
2019-04-22T05:33:51.050Z,6.90
2019-04-22T05:36:42.641Z,7.10
2019-04-22T05:39:00.262Z,7.40
2019-04-22T05:41:30.577Z,7.70
2019-04-22T05:44:03.241Z,8.00
2019-04-22T05:46:35.837Z,8.20
2019-04-22T05:49:08.436Z,8.50
2019-04-22T05:54:14.611Z,9.00
2019-04-22T05:56:41.257Z,9.30
2019-04-22T05:59:17.752Z,9.50
2019-04-22T06:02:01.196Z,9.80
2019-04-22T06:04:37.196Z,10.10
2019-04-22T06:06:54.146Z,10.30
2019-04-22T06:09:47.195Z,10.60
2019-04-22T06:11:54.368Z,10.90
2019-04-22T06:14:24.742Z,11.20
2019-04-22T06:17:03.920Z,11.50
2019-04-22T06:19:38.651Z,11.70
2019-04-22T06:22:16.951Z,12.00
2019-04-22T06:26:10.148Z,12.30
2019-04-22T06:31:10.741Z,13.00
2019-04-22T06:33:40.490Z,13.30
2019-04-22T06:36:17.996Z,13.50
2019-04-22T06:39:05.261Z,13.90
2019-04-22T06:41:24.852Z,14.30
2019-04-22T06:43:56.162Z,14.50
2019-04-22T06:46:25.676Z,14.80
2019-04-22T06:49:01.432Z,15.10
2019-04-22T06:51:27.118Z,15.40
2019-04-22T06:54:01.744Z,15.50
2019-04-22T06:56:27.449Z,15.90
2019-04-22T06:59:10.004Z,16.00
2019-04-22T07:01:43.159Z,16.40
2019-04-22T07:04:14.137Z,16.70
2019-04-22T07:11:42.954Z,17.70
2019-04-22T07:14:18.849Z,17.80
2019-04-22T07:16:51.011Z,18.10
2019-04-22T07:19:31.912Z,18.40
2019-04-22T07:21:57.311Z,18.50
2019-04-22T07:27:04.690Z,19.10
2019-04-22T07:29:32.733Z,19.30
2019-04-22T07:32:07.788Z,19.60
2019-04-22T07:34:50.380Z,19.80
2019-04-22T07:37:20.008Z,19.70
2019-04-22T07:42:19.193Z,20.30
2019-04-22T07:44:53.300Z,20.50
2019-04-22T07:47:27.315Z,20.50
2019-04-22T07:50:23.403Z,20.50
2019-04-22T07:52:27.397Z,20.80
2019-04-22T07:54:56.967Z,20.60
2019-04-22T07:57:32.512Z,20.70
2019-04-22T08:00:09.127Z,20.80
2019-04-22T08:02:37.991Z,21.10
2019-04-22T08:05:26.352Z,21.40
2019-04-22T08:07:43.559Z,21.60
2019-04-22T08:10:25.573Z,21.90
2019-04-22T08:12:47.369Z,22.00
2019-04-22T08:15:19.945Z,22.10
2019-04-22T08:20:26.906Z,21.90
2019-04-22T08:23:01.272Z,21.80
2019-04-22T08:25:24.556Z,21.90
2019-04-22T08:28:03.400Z,22.00
2019-04-22T08:30:35.515Z,22.20
2019-04-22T08:33:13.892Z,22.30
2019-04-22T08:35:53.117Z,22.40
2019-04-22T08:38:11.646Z,22.50
2019-04-22T08:40:53.823Z,22.80
2019-04-22T08:43:20.943Z,23.00
2019-04-22T08:45:51.137Z,23.20
2019-04-22T08:48:24.850Z,23.30
2019-04-22T08:50:52.896Z,23.70
2019-04-22T08:53:35.426Z,23.60
2019-04-22T08:56:07.724Z,23.40
2019-04-22T08:58:31.551Z,23.50
2019-04-22T09:01:04.916Z,23.80
2019-04-22T09:03:39.819Z,24.10
2019-04-22T09:06:12.488Z,23.40
2019-04-22T09:08:45.606Z,23.70
2019-04-22T09:11:20.249Z,24.10
2019-04-22T09:13:50.417Z,24.20
2019-04-22T09:16:30.159Z,23.70
2019-04-22T09:18:53.980Z,24.20
2019-04-22T09:21:30.565Z,24.50
2019-04-22T09:23:58.330Z,24.10
2019-04-22T09:26:34.708Z,24.10
2019-04-22T09:29:05.127Z,23.90
2019-04-22T09:31:35.887Z,24.20
2019-04-22T09:34:06.518Z,24.50
2019-04-22T09:36:40.712Z,24.80
2019-04-22T09:39:15.414Z,25.20
2019-04-22T09:41:49.482Z,25.30
2019-04-22T09:44:19.100Z,25.30
2019-04-22T09:49:26.746Z,25.30
2019-04-22T09:51:58.649Z,25.10
2019-04-22T09:54:43.729Z,25.20
2019-04-22T09:57:03.963Z,25.40
2019-04-22T09:59:35.037Z,25.20
2019-04-22T10:02:19.747Z,24.70
2019-04-22T10:04:40.225Z,25.30
2019-04-22T10:07:17.606Z,25.40
2019-04-22T10:12:25.289Z,25.50
2019-04-22T10:14:49.221Z,25.70
2019-04-22T10:17:26.086Z,25.70
2019-04-22T10:19:53.521Z,25.20
2019-04-22T10:22:32.549Z,25.60
2019-04-22T10:25:03.355Z,25.70
2019-04-22T10:27:32.506Z,25.90
2019-04-22T10:30:04.567Z,25.90
2019-04-22T10:32:40.621Z,25.70
2019-04-22T10:35:09.254Z,25.40
2019-04-22T10:37:38.639Z,25.60
2019-04-22T10:40:15.904Z,25.90
2019-04-22T10:42:47.391Z,25.70
2019-04-22T10:45:20.045Z,25.80
2019-04-22T10:47:52.255Z,26.10
2019-04-22T10:50:33.156Z,25.90
2019-04-22T10:53:03.805Z,26.30
2019-04-22T10:55:35.186Z,26.30
2019-04-22T10:58:06.702Z,26.70
2019-04-22T11:00:39.727Z,26.50
2019-04-22T11:03:11.976Z,26.30
2019-04-22T11:05:44.309Z,26.60
2019-04-22T11:08:27.239Z,26.60
2019-04-22T11:11:05.793Z,26.70
2019-04-22T11:13:22.265Z,26.60
2019-04-22T11:15:53.369Z,26.60
2019-04-22T11:18:25.364Z,26.40
2019-04-22T11:20:57.759Z,26.50
2019-04-22T11:23:28.933Z,26.60
2019-04-22T11:26:01.796Z,26.60
2019-04-22T11:28:33.897Z,26.70
2019-04-22T11:31:06.095Z,26.80
2019-04-22T11:33:38.582Z,27.10
2019-04-22T11:36:10.126Z,27.10
2019-04-22T11:38:48.548Z,27.30
2019-04-22T11:41:14.755Z,27.20
2019-04-22T11:43:47.251Z,27.30
2019-04-22T11:46:18.633Z,26.80
2019-04-22T11:48:49.917Z,26.90
2019-04-22T11:51:22.126Z,26.70
2019-04-22T11:53:54.574Z,26.90
2019-04-22T11:56:27.134Z,26.90
2019-04-22T11:58:58.138Z,25.50
2019-04-22T12:01:29.112Z,25.50
2019-04-22T12:04:00.093Z,25.70
2019-04-22T12:06:31.808Z,25.60
2019-04-22T12:09:03.839Z,25.90
2019-04-22T12:11:36.454Z,25.90
2019-04-22T12:14:07.386Z,25.20
2019-04-22T12:16:39.355Z,25.00
2019-04-22T12:19:11.416Z,24.90
2019-04-22T12:21:42.532Z,24.90
2019-04-22T12:24:15.049Z,24.70
2019-04-22T12:26:46.384Z,25.20
2019-04-22T12:29:17.521Z,25.50
2019-04-22T12:31:49.397Z,25.10
2019-04-22T12:34:21.581Z,24.90
2019-04-22T12:36:52.484Z,24.60
2019-04-22T12:39:23.359Z,24.50
2019-04-22T12:41:54.364Z,25.00
2019-04-22T12:44:26.597Z,25.10
2019-04-22T12:47:00.220Z,25.50
2019-04-22T12:49:30.186Z,25.60
2019-04-22T12:52:01.190Z,25.90
2019-04-22T12:54:33.089Z,25.60
2019-04-22T12:57:04.095Z,25.90
2019-04-22T12:59:35.345Z,25.80
2019-04-22T13:02:07.213Z,25.80
2019-04-22T13:04:38.538Z,25.60
2019-04-22T13:07:09.481Z,24.50
2019-04-22T13:09:41.260Z,24.90
2019-04-22T13:12:13.121Z,25.20
2019-04-22T13:14:45.523Z,25.10
2019-04-22T13:17:17.106Z,25.10
2019-04-22T13:19:48.164Z,25.00
2019-04-22T13:22:19.199Z,25.10
2019-04-22T13:24:52.069Z,25.40
2019-04-22T13:27:24.679Z,25.50
2019-04-22T13:29:57.147Z,25.00
2019-04-22T13:32:28.943Z,25.00
2019-04-22T13:35:01.694Z,25.20
2019-04-22T13:37:32.759Z,25.20
2019-04-22T13:40:03.643Z,25.30
2019-04-22T13:42:35.499Z,25.40
2019-04-22T13:45:07.599Z,25.60
2019-04-22T13:51:36.192Z,25.80
2019-04-22T13:54:00.251Z,25.50
2019-04-22T13:55:45.345Z,25.50
2019-04-22T13:58:04.124Z,25.10
2019-04-22T14:00:26.966Z,25.10
2019-04-22T14:03:29.038Z,25.00
2019-04-22T14:06:00.820Z,24.90
2019-04-22T14:08:33.200Z,24.70
2019-04-22T14:11:16.818Z,24.40
2019-04-22T14:13:39.596Z,24.40
2019-04-22T14:16:13.164Z,24.30
2019-04-22T14:18:45.959Z,24.30
2019-04-22T14:21:18.811Z,24.00
2019-04-22T14:23:52.967Z,23.90
2019-04-22T14:26:25.040Z,23.90
2019-04-22T14:28:57.496Z,24.10
2019-04-22T14:31:28.705Z,23.90
2019-04-22T14:34:04.989Z,23.90
2019-04-22T14:36:35.234Z,23.90
2019-04-22T14:39:08.420Z,24.00
2019-04-22T14:41:54.769Z,24.00
2019-04-22T14:47:17.613Z,23.80
2019-04-22T14:49:43.495Z,24.00
2019-04-22T14:52:12.950Z,23.80
2019-04-22T14:54:35.015Z,23.80
2019-04-22T14:56:54.473Z,23.70
2019-04-22T14:59:25.375Z,23.90
2019-04-22T15:01:56.245Z,23.90
2019-04-22T15:04:27.259Z,23.90
2019-04-22T15:06:59.073Z,23.70
2019-04-22T15:09:30.192Z,23.60
2019-04-22T15:12:11.027Z,23.70
2019-04-22T15:14:33.665Z,23.80
2019-04-22T15:17:22.954Z,23.80
2019-04-22T15:20:07.824Z,23.70
2019-04-22T15:22:38.935Z,23.60
2019-04-22T15:25:10.432Z,23.50
2019-04-22T15:27:41.611Z,23.60
2019-04-22T15:30:12.404Z,23.60
2019-04-22T15:32:43.391Z,23.60
2019-04-22T15:35:15.508Z,23.20
2019-04-22T15:37:46.499Z,23.50
2019-04-22T15:40:18.510Z,23.30
2019-04-22T15:42:50.744Z,23.40
2019-04-22T15:45:25.893Z,23.60
2019-04-22T15:47:57.933Z,23.80
2019-04-22T15:50:28.793Z,23.50
2019-04-22T15:53:02.317Z,23.30
2019-04-22T15:55:32.677Z,23.00
2019-04-22T15:58:03.921Z,22.50
2019-04-22T16:00:44.437Z,22.40
2019-04-22T16:03:10.472Z,22.10
2019-04-22T16:05:39.924Z,21.80
2019-04-22T16:08:11.001Z,21.50
2019-04-22T16:10:42.118Z,21.40
2019-04-22T16:13:20.695Z,21.30
2019-04-22T16:15:46.774Z,21.20
2019-04-22T16:18:18.216Z,21.10
2019-04-22T16:20:50.314Z,21.00
2019-04-22T16:23:29.281Z,20.90
2019-04-22T16:26:17.890Z,21.00
2019-04-22T16:28:49.334Z,21.20
2019-04-22T16:31:21.837Z,20.80
2019-04-22T16:33:54.261Z,20.50
2019-04-22T16:36:26.616Z,20.40
2019-04-22T16:38:57.667Z,20.10
2019-04-22T16:41:28.679Z,20.00
2019-04-22T16:44:00.762Z,19.70
2019-04-22T16:46:31.933Z,19.40
2019-04-22T16:49:03.411Z,19.20
2019-04-22T16:51:36.197Z,19.00
2019-04-22T16:54:08.534Z,18.80
2019-04-22T16:56:39.755Z,18.60
2019-04-22T16:59:10.791Z,18.50
2019-04-22T17:05:57.299Z,18.10
2019-04-22T18:26:22.882Z,15.60
2019-04-22T18:55:08.587Z,15.00
2019-04-22T18:57:53.477Z,14.90
2019-04-22T19:00:16.240Z,14.80
2019-04-22T19:02:56.938Z,14.80
2019-04-22T19:05:35.901Z,14.70
2019-04-22T19:08:17.901Z,14.60
2019-04-22T19:44:50.791Z,13.90
2019-04-22T19:47:38.463Z,13.80
2019-04-22T19:49:57.926Z,13.70
2019-04-22T19:52:28.826Z,13.60
2019-04-22T19:55:01.532Z,13.60
2019-04-22T19:57:31.389Z,13.60
2019-04-22T20:00:03.628Z,13.50
2019-04-22T20:03:26.437Z,13.50
2019-04-22T20:05:58.112Z,13.50
2019-04-22T20:08:26.397Z,13.50
2019-04-22T20:11:04.006Z,13.50
2019-04-22T20:13:38.650Z,13.40
2019-04-22T20:15:57.539Z,13.40
2019-04-22T23:39:02.420Z,12.50
2019-04-22T23:41:46.445Z,12.40
2019-04-22T23:44:15.949Z,12.40
2019-04-22T23:46:56.788Z,12.40
2019-04-22T23:49:31.519Z,12.40
2019-04-22T23:52:10.064Z,12.40
